Time;durP1;ratioP1;P1;durP2;ratioP2;P2;SDS_P1;SDS_P2;PMS_P1;PMS_P2;Temp;Humidity;BMP_temperature;BMP_pressure;BME280_temperature;BME280_humidity;BME280_pressure;Samples;Min_cycle;Max_cycle;Signal;HPM_P1;HPM_P2
2022/03/21 00:01:33;;;;;;;47.40;34.40;;;7.30;95.60;;;;;;5078896;27;37025;-55
2022/03/21 00:04:00;;;;;;;50.95;34.92;;;7.30;95.40;;;;;;5080017;27;37521;-55
2022/03/21 00:06:28;;;;;;;51.53;35.25;;;7.30;95.40;;;;;;5079673;28;37468;-56
2022/03/21 00:08:55;;;;;;;51.63;33.55;;;7.30;95.40;;;;;;5079144;27;37987;-55
2022/03/21 00:11:24;;;;;;;47.13;33.45;;;7.30;95.30;;;;;;5079405;28;37196;-56
2022/03/21 00:13:53;;;;;;;45.78;33.05;;;7.30;95.40;;;;;;5079026;27;36771;-55
2022/03/21 00:16:21;;;;;;;51.78;35.20;;;7.30;95.40;;;;;;5078501;27;38469;-56
2022/03/21 00:18:49;;;;;;;49.28;33.58;;;7.30;95.50;;;;;;5079611;28;37291;-56
2022/03/21 00:21:17;;;;;;;46.97;33.67;;;7.20;95.50;;;;;;5079067;28;36090;-56
2022/03/21 00:23:45;;;;;;;48.05;34.03;;;7.20;95.60;;;;;;5078003;27;38197;-56
2022/03/21 00:26:12;;;;;;;50.38;35.58;;;7.20;95.60;;;;;;5077281;27;37583;-56
2022/03/21 00:28:41;;;;;;;54.35;34.88;;;7.20;95.60;;;;;;5079062;28;38298;-56
2022/03/21 00:31:08;;;;;;;50.03;33.55;;;7.20;95.50;;;;;;5079801;27;37755;-48
2022/03/21 00:33:36;;;;;;;49.10;34.38;;;7.20;95.50;;;;;;5078928;27;36516;-49
2022/03/21 00:36:05;;;;;;;52.47;35.65;;;7.10;95.70;;;;;;5078723;27;38161;-50
2022/03/21 00:38:34;;;;;;;45.38;33.28;;;7.10;95.70;;;;;;5078158;28;35999;-49
2022/03/21 00:41:02;;;;;;;47.45;35.28;;;7.00;95.90;;;;;;5079086;27;37667;-50
2022/03/21 00:43:30;;;;;;;48.60;33.90;;;6.90;96.00;;;;;;5076971;27;38282;-49
2022/03/21 00:45:59;;;;;;;51.97;33.55;;;6.90;96.00;;;;;;5078969;27;37769;-49
2022/03/21 00:48:28;;;;;;;48.05;33.83;;;6.80;95.90;;;;;;5080293;27;36484;-49
2022/03/21 00:50:57;;;;;;;46.90;33.20;;;6.80;95.70;;;;;;5079644;27;37017;-48
2022/03/21 00:53:24;;;;;;;46.20;33.22;;;6.80;95.50;;;;;;5078766;28;36799;-50
2022/03/21 00:55:52;;;;;;;50.15;33.75;;;6.70;95.30;;;;;;5078038;28;36111;-49
2022/03/21 00:58:20;;;;;;;48.10;34.63;;;6.70;95.20;;;;;;5078650;28;36800;-48
2022/03/21 01:00:48;;;;;;;46.35;33.50;;;6.60;95.30;;;;;;5078900;27;37290;-50
2022/03/21 01:03:16;;;;;;;47.47;32.97;;;6.50;95.50;;;;;;5078695;27;37796;-49
2022/03/21 01:05:44;;;;;;;47.40;33.03;;;6.50;95.70;;;;;;5077888;27;37695;-47
2022/03/21 01:08:11;;;;;;;48.78;34.38;;;6.40;95.80;;;;;;5078594;28;38478;-47
2022/03/21 01:10:38;;;;;;;47.88;33.55;;;6.30;96.10;;;;;;5078567;27;38433;-55
2022/03/21 01:13:06;;;;;;;46.47;31.95;;;6.30;96.20;;;;;;5078928;28;36689;-55
2022/03/21 01:15:34;;;;;;;47.53;31.40;;;6.30;96.20;;;;;;5077312;28;38796;-56
2022/03/21 01:18:01;;;;;;;44.45;31.95;;;6.30;96.20;;;;;;5077645;27;37736;-56
2022/03/21 01:20:30;;;;;;;45.58;31.88;;;6.40;96.20;;;;;;5076966;28;38673;-56
2022/03/21 01:22:57;;;;;;;43.72;30.23;;;6.40;96.40;;;;;;5078081;27;37645;-55
2022/03/21 01:25:24;;;;;;;44.10;31.00;;;6.40;96.30;;;;;;5077022;28;36132;-46
2022/03/21 01:27:52;;;;;;;41.33;29.20;;;6.40;96.10;;;;;;5077638;27;37521;-45
2022/03/21 01:30:20;;;;;;;43.22;30.30;;;6.50;96.10;;;;;;5076210;27;37227;-50
2022/03/21 01:32:47;;;;;;;43.10;29.42;;;6.50;96.10;;;;;;5077564;28;35443;-47
2022/03/21 01:35:16;;;;;;;43.88;29.65;;;6.50;96.20;;;;;;5077415;27;38668;-55
2022/03/21 01:37:45;;;;;;;42.00;28.45;;;6.50;96.40;;;;;;5077556;28;35988;-55
2022/03/21 01:40:14;;;;;;;43.60;29.20;;;6.60;96.50;;;;;;5078911;27;35806;-56
2022/03/21 01:42:43;;;;;;;38.35;27.70;;;6.60;96.40;;;;;;5077357;28;36776;-55
2022/03/21 01:45:11;;;;;;;37.83;27.42;;;6.70;96.40;;;;;;5077847;27;38624;-48
2022/03/21 01:47:39;;;;;;;44.05;27.20;;;6.70;96.50;;;;;;5078077;27;38276;-49
2022/03/21 01:50:08;;;;;;;40.60;28.27;;;6.80;96.50;;;;;;5077169;28;35898;-47
2022/03/21 01:52:36;;;;;;;45.15;27.63;;;6.80;96.50;;;;;;5077906;27;36673;-49
2022/03/21 01:57:53;;;;;;;37.83;27.40;;;6.70;96.20;;;;;;5078291;28;38553;-49
2022/03/21 02:00:21;;;;;;;40.13;25.88;;;6.70;96.10;;;;;;5077592;27;36866;-50
2022/03/21 02:02:48;;;;;;;40.72;27.48;;;6.70;96.10;;;;;;5077875;27;37885;-49
2022/03/21 02:05:15;;;;;;;41.58;27.23;;;6.60;96.20;;;;;;5075779;28;38258;-47
2022/03/21 02:07:43;;;;;;;34.72;24.25;;;6.60;96.20;;;;;;5069416;28;38312;-49
2022/03/21 02:10:12;;;;;;;34.80;24.20;;;6.50;96.00;;;;;;5077079;27;37702;-50
2022/03/21 02:12:40;;;;;;;35.75;25.33;;;6.40;96.10;;;;;;5077302;27;36552;-48
2022/03/21 02:15:08;;;;;;;33.08;23.67;;;6.40;96.20;;;;;;5076784;28;38421;-55
2022/03/21 02:17:38;;;;;;;38.50;24.38;;;6.40;96.30;;;;;;5077610;28;37548;-55
2022/03/21 02:20:07;;;;;;;35.20;23.73;;;6.40;96.50;;;;;;5077384;27;36896;-56
2022/03/21 02:22:39;;;;;;;31.95;22.73;;;6.40;96.60;;;;;;5077275;27;37213;-55
2022/03/21 02:25:26;;;;;;;35.28;23.25;;;6.40;96.60;;;;;;5077332;27;36198;-55
2022/03/21 02:27:56;;;;;;;36.70;23.25;;;6.40;96.90;;;;;;5076629;28;38438;-55
2022/03/21 02:30:25;;;;;;;36.00;23.67;;;6.40;96.60;;;;;;5076496;27;37110;-55
2022/03/21 02:32:53;;;;;;;34.55;23.73;;;6.30;96.80;;;;;;5076592;28;35576;-56
2022/03/21 02:35:22;;;;;;;37.13;22.40;;;6.30;97.20;;;;;;5077842;28;37694;-55
2022/03/21 02:37:50;;;;;;;36.28;22.60;;;6.20;97.60;;;;;;5075076;28;35885;-55
2022/03/21 02:40:18;;;;;;;31.52;21.98;;;6.20;97.90;;;;;;5076920;27;39666;-55
2022/03/21 02:42:46;;;;;;;31.73;21.38;;;6.30;98.20;;;;;;5077397;28;36981;-55
2022/03/21 02:45:13;;;;;;;31.33;20.95;;;6.30;98.40;;;;;;5076971;28;39033;-56
2022/03/21 02:47:40;;;;;;;31.55;22.10;;;6.30;98.50;;;;;;5077389;27;35845;-56
2022/03/21 02:50:12;;;;;;;35.60;22.95;;;6.30;98.70;;;;;;5080197;27;36951;-56
2022/03/21 02:52:42;;;;;;;32.30;21.73;;;6.30;98.60;;;;;;5080543;27;38486;-55
2022/03/21 02:55:09;;;;;;;31.95;22.17;;;6.20;98.40;;;;;;5079200;28;36311;-56
2022/03/21 02:57:38;;;;;;;36.08;21.98;;;6.00;98.80;;;;;;5081127;28;36792;-55
2022/03/21 03:00:07;;;;;;;34.83;21.13;;;6.00;99.20;;;;;;5079995;27;39765;-58
2022/03/21 03:02:34;;;;;;;32.55;21.27;;;6.00;99.30;;;;;;5080061;27;38314;-58
2022/03/21 03:05:02;;;;;;;30.27;19.80;;;5.80;99.10;;;;;;5080677;27;37651;-58
2022/03/21 03:07:29;;;;;;;31.35;20.92;;;5.80;99.00;;;;;;5080138;28;38067;-58
2022/03/21 03:09:56;;;;;;;32.58;20.70;;;5.80;99.20;;;;;;5081495;28;39410;-58
2022/03/21 03:12:23;;;;;;;31.90;19.98;;;5.80;99.40;;;;;;5080620;27;36842;-58
2022/03/21 03:14:52;;;;;;;29.88;20.17;;;5.70;99.30;;;;;;5081273;27;37369;-58
2022/03/21 03:17:20;;;;;;;32.60;21.63;;;5.60;99.00;;;;;;5081238;28;35846;-58
2022/03/21 03:19:47;;;;;;;27.52;19.70;;;5.50;99.10;;;;;;5081530;27;38603;-58
2022/03/21 03:22:15;;;;;;;33.35;19.60;;;5.40;99.20;;;;;;5081265;28;36983;-58
2022/03/21 03:24:43;;;;;;;29.75;19.42;;;5.40;99.30;;;;;;5080311;27;37601;-58
2022/03/21 03:27:10;;;;;;;32.28;19.50;;;5.40;99.60;;;;;;5079897;27;36741;-58
2022/03/21 03:29:38;;;;;;;25.48;18.33;;;5.30;99.50;;;;;;5080367;28;38023;-58
2022/03/21 03:32:07;;;;;;;25.55;17.38;;;5.30;99.60;;;;;;5080991;28;36857;-58
2022/03/21 03:34:35;;;;;;;27.88;17.35;;;5.20;99.70;;;;;;5080054;28;38550;-58
2022/03/21 03:37:03;;;;;;;28.65;17.92;;;5.20;99.60;;;;;;5080081;27;38318;-59
2022/03/21 03:39:30;;;;;;;28.63;18.73;;;5.20;99.60;;;;;;5079733;28;37124;-58
2022/03/21 03:41:58;;;;;;;27.48;18.05;;;5.10;99.70;;;;;;5079461;27;38093;-57
2022/03/21 03:44:26;;;;;;;27.10;16.88;;;5.00;99.80;;;;;;5080660;27;38043;-58
2022/03/21 03:46:54;;;;;;;27.00;17.50;;;5.00;99.90;;;;;;5078856;27;37378;-58
2022/03/21 03:49:23;;;;;;;24.95;16.17;;;5.10;99.90;;;;;;5078605;28;37970;-58
2022/03/21 03:51:51;;;;;;;23.58;16.75;;;5.00;99.90;;;;;;5077737;27;37721;-58
2022/03/21 03:54:18;;;;;;;26.25;15.98;;;4.90;99.90;;;;;;5077766;27;37390;-58
2022/03/21 03:56:45;;;;;;;24.10;15.52;;;4.90;99.90;;;;;;5077989;28;37588;-58
2022/03/21 03:59:14;;;;;;;22.05;15.02;;;4.90;99.90;;;;;;5077922;27;37810;-58
2022/03/21 04:01:41;;;;;;;24.80;15.05;;;4.90;99.90;;;;;;5080273;28;36853;-58
2022/03/21 04:04:08;;;;;;;23.58;15.10;;;4.80;99.90;;;;;;5079191;27;37692;-58
2022/03/21 04:06:36;;;;;;;24.67;14.43;;;4.70;99.90;;;;;;5079796;27;38164;-58
2022/03/21 04:09:04;;;;;;;22.42;15.13;;;4.70;99.80;;;;;;5078914;27;38136;-58
2022/03/21 04:11:31;;;;;;;24.25;14.00;;;4.60;99.50;;;;;;5078875;28;36714;-58
2022/03/21 04:13:58;;;;;;;23.15;14.98;;;4.60;99.70;;;;;;5079173;28;36887;-58
2022/03/21 04:16:26;;;;;;;29.77;16.70;;;4.60;99.90;;;;;;5080051;27;38985;-58
2022/03/21 04:18:53;;;;;;;28.92;14.80;;;4.60;99.90;;;;;;5080223;27;35867;-58
2022/03/21 04:21:20;;;;;;;31.15;15.65;;;4.60;99.90;;;;;;5078639;27;37165;-58
2022/03/21 04:23:49;;;;;;;25.08;15.50;;;4.60;99.90;;;;;;5078843;28;38291;-57
2022/03/21 04:26:16;;;;;;;26.17;15.50;;;4.70;99.90;;;;;;5079500;28;37790;-58
2022/03/21 04:28:43;;;;;;;27.55;16.80;;;4.70;99.90;;;;;;5078366;28;38612;-58
2022/03/21 04:31:11;;;;;;;30.77;18.13;;;4.80;99.90;;;;;;5079836;27;36589;-57
2022/03/21 04:33:39;;;;;;;29.30;16.90;;;4.80;99.90;;;;;;5079014;27;37581;-57
2022/03/21 04:36:07;;;;;;;23.50;15.52;;;4.80;99.90;;;;;;5078468;28;37622;-57
2022/03/21 04:38:34;;;;;;;26.95;14.48;;;4.80;99.90;;;;;;5078425;28;37380;-58
2022/03/21 04:41:03;;;;;;;23.92;14.50;;;4.80;99.90;;;;;;5079158;28;37145;-57
2022/03/21 04:43:30;;;;;;;23.85;15.50;;;4.80;99.90;;;;;;5079373;27;37353;-57
2022/03/21 04:45:57;;;;;;;26.48;16.30;;;4.90;99.90;;;;;;5079045;27;35914;-57
2022/03/21 04:48:25;;;;;;;27.02;15.88;;;4.90;99.90;;;;;;5077446;27;39522;-58
2022/03/21 04:50:52;;;;;;;27.83;16.88;;;4.90;99.90;;;;;;5079783;27;38145;-58
2022/03/21 04:53:19;;;;;;;29.30;18.00;;;4.90;99.90;;;;;;5079018;27;36141;-58
2022/03/21 04:55:47;;;;;;;26.27;16.75;;;4.90;99.90;;;;;;5078792;27;38613;-57
2022/03/21 04:58:16;;;;;;;31.95;16.45;;;4.90;99.90;;;;;;5077513;27;37106;-57
2022/03/21 05:00:44;;;;;;;28.88;17.42;;;4.90;99.90;;;;;;5078557;28;37755;-58
2022/03/21 05:03:11;;;;;;;24.40;14.43;;;4.90;99.90;;;;;;5077167;27;39561;-58
2022/03/21 05:05:38;;;;;;;24.20;13.60;;;4.90;99.90;;;;;;5078525;27;38687;-57
2022/03/21 05:08:06;;;;;;;24.17;14.43;;;4.90;99.90;;;;;;5078749;27;37856;-57
2022/03/21 05:10:35;;;;;;;27.90;14.65;;;4.90;99.90;;;;;;5077801;27;36639;-58
2022/03/21 05:13:03;;;;;;;25.58;15.02;;;4.90;99.90;;;;;;5078536;27;37578;-57
2022/03/21 05:15:32;;;;;;;23.63;14.13;;;4.90;99.90;;;;;;5077425;28;37214;-57
2022/03/21 05:17:59;;;;;;;22.67;13.82;;;4.90;99.90;;;;;;5078338;27;37260;-57
2022/03/21 05:20:27;;;;;;;26.88;15.63;;;4.90;99.90;;;;;;5076012;27;36521;-57
2022/03/21 05:31:08;;;;;;;23.23;13.73;;;4.90;99.90;;;;;;5057908;28;36256;-56
2022/03/21 05:36:23;;;;;;;22.85;13.38;;;4.80;99.90;;;;;;5077864;28;37134;-58
2022/03/21 05:38:50;;;;;;;18.52;12.25;;;4.70;99.90;;;;;;5078334;28;37010;-58
2022/03/21 05:41:18;;;;;;;22.73;14.07;;;4.70;99.90;;;;;;5076985;28;39917;-57
2022/03/21 05:43:45;;;;;;;21.50;12.68;;;4.60;99.90;;;;;;5077161;28;37454;-57
2022/03/21 05:46:15;;;;;;;66.97;16.05;;;4.60;99.90;;;;;;5077022;28;38117;-57
2022/03/21 05:48:54;;;;;;;204.90;19.23;;;4.50;99.60;;;;;;5077575;27;37152;-57
2022/03/21 05:51:23;;;;;;;45.53;12.05;;;4.30;99.20;;;;;;5077326;27;35408;-57
2022/03/21 05:53:52;;;;;;;25.77;8.80;;;4.10;99.30;;;;;;5077960;27;38783;-56
2022/03/21 05:56:20;;;;;;;127.15;13.13;;;4.10;99.40;;;;;;5077824;27;38238;-57
2022/03/21 05:58:47;;;;;;;160.40;15.15;;;4.10;99.90;;;;;;5078360;28;35875;-57
2022/03/21 06:01:22;;;;;;;17.42;6.93;;;4.20;99.90;;;;;;5076740;27;38693;-57
2022/03/21 06:03:51;;;;;;;211.65;11.75;;;4.30;99.90;;;;;;5078918;27;36259;-57
2022/03/21 06:06:18;;;;;;;319.13;16.58;;;4.20;99.90;;;;;;5076074;27;35980;-57
2022/03/21 06:08:46;;;;;;;37.38;4.68;;;4.40;99.90;;;;;;5076620;27;37107;-57
2022/03/21 06:11:13;;;;;;;27.80;7.40;;;4.50;99.90;;;;;;5076541;27;37383;-57
2022/03/21 06:13:42;;;;;;;9.90;5.47;;;4.60;99.90;;;;;;5076776;28;36090;-58
2022/03/21 06:16:10;;;;;;;10.80;5.18;;;4.70;99.90;;;;;;5076584;28;36129;-57
2022/03/21 06:18:39;;;;;;;9.70;5.07;;;4.90;99.90;;;;;;5078531;27;35762;-58
2022/03/21 06:21:08;;;;;;;36.22;8.60;;;5.00;99.90;;;;;;5077091;27;36401;-58
2022/03/21 06:23:36;;;;;;;20.92;8.45;;;5.20;99.90;;;;;;5080805;28;37619;-57
2022/03/21 06:26:04;;;;;;;16.73;9.65;;;5.30;99.90;;;;;;5079556;27;37079;-58
2022/03/21 06:28:32;;;;;;;17.65;11.15;;;5.40;99.90;;;;;;5081112;27;35609;-58
2022/03/21 06:30:59;;;;;;;19.60;11.05;;;5.50;99.90;;;;;;5081186;27;36492;-58
2022/03/21 06:33:29;;;;;;;20.80;12.90;;;5.60;99.90;;;;;;5080526;28;39945;-58
2022/03/21 06:35:59;;;;;;;21.67;11.95;;;5.80;99.90;;;;;;5080619;27;37587;-57
2022/03/21 06:38:27;;;;;;;19.33;12.38;;;5.90;99.90;;;;;;5080057;27;37429;-58
2022/03/21 06:40:55;;;;;;;15.93;9.75;;;6.20;99.90;;;;;;5081067;28;37265;-57
2022/03/21 06:43:22;;;;;;;14.60;9.30;;;6.30;99.70;;;;;;5079986;27;39031;-58
2022/03/21 06:45:51;;;;;;;13.18;8.57;;;6.50;99.20;;;;;;5078337;27;37378;-58
2022/03/21 06:48:19;;;;;;;13.43;8.55;;;6.60;98.90;;;;;;5076004;28;37274;-57
2022/03/21 06:50:46;;;;;;;15.23;9.80;;;6.80;98.60;;;;;;5079030;27;36990;-58
2022/03/21 06:53:16;;;;;;;15.02;9.55;;;6.90;98.30;;;;;;5079515;28;37503;-57
2022/03/21 06:55:44;;;;;;;15.43;10.88;;;6.80;98.10;;;;;;5079757;27;38154;-58
2022/03/21 06:58:13;;;;;;;17.50;10.32;;;6.80;98.20;;;;;;5079996;28;37063;-58
2022/03/21 07:00:41;;;;;;;20.92;11.18;;;6.90;98.60;;;;;;5077232;28;36686;-58
2022/03/21 07:03:09;;;;;;;16.63;11.38;;;6.90;98.70;;;;;;5072706;28;37652;-58
2022/03/21 07:05:36;;;;;;;19.13;12.35;;;7.10;98.90;;;;;;5074541;27;36095;-57
2022/03/21 07:08:04;;;;;;;20.70;12.43;;;7.10;99.00;;;;;;5074319;27;37250;-57
2022/03/21 07:10:33;;;;;;;23.52;13.93;;;7.30;99.20;;;;;;5075358;27;36646;-58
2022/03/21 07:13:01;;;;;;;17.98;12.85;;;7.40;99.30;;;;;;5076531;27;37761;-57
2022/03/21 07:15:28;;;;;;;28.30;13.63;;;7.60;99.00;;;;;;5077035;27;37230;-57
2022/03/21 07:17:56;;;;;;;24.23;14.05;;;7.80;98.80;;;;;;5077040;28;37549;-57
2022/03/21 07:20:25;;;;;;;20.52;13.88;;;8.00;98.50;;;;;;5076313;28;39250;-57
2022/03/21 07:22:53;;;;;;;22.95;13.85;;;8.20;98.40;;;;;;5074460;27;38382;-58
2022/03/21 07:25:21;;;;;;;25.02;15.65;;;8.40;98.00;;;;;;5075253;27;35750;-59
2022/03/21 07:27:50;;;;;;;25.73;15.95;;;8.60;97.70;;;;;;5074282;28;37014;-57
2022/03/21 07:30:18;;;;;;;23.85;16.42;;;8.70;97.40;;;;;;5075077;27;39139;-58
2022/03/21 07:32:46;;;;;;;27.52;17.17;;;8.80;97.30;;;;;;5070108;28;37703;-57
2022/03/21 07:35:14;;;;;;;22.00;15.20;;;8.90;97.40;;;;;;5072739;27;37161;-57
2022/03/21 07:37:42;;;;;;;26.30;17.35;;;9.10;97.40;;;;;;5075450;28;37449;-57
2022/03/21 07:40:11;;;;;;;24.92;17.60;;;9.20;97.10;;;;;;5073404;27;36720;-58
2022/03/21 07:42:39;;;;;;;24.88;16.25;;;9.20;97.00;;;;;;5074508;28;39905;-58
2022/03/21 07:48:06;;;;;;;26.08;16.70;;;9.30;96.50;;;;;;5037447;28;37839;-58
2022/03/21 07:50:34;;;;;;;24.60;17.27;;;9.20;96.40;;;;;;5065459;28;36952;-57
2022/03/21 07:53:02;;;;;;;26.88;17.15;;;9.30;96.50;;;;;;5074132;27;36127;-57
2022/03/21 07:55:31;;;;;;;26.70;17.40;;;9.30;96.40;;;;;;5075004;28;38495;-57
2022/03/21 07:57:59;;;;;;;26.77;17.70;;;9.30;96.60;;;;;;5072805;27;35893;-58
2022/03/21 08:00:28;;;;;;;26.73;18.98;;;9.40;96.70;;;;;;5075134;27;38299;-58
2022/03/21 08:02:58;;;;;;;29.88;18.05;;;9.40;96.60;;;;;;5074168;27;37255;-57
2022/03/21 08:05:28;;;;;;;26.52;16.95;;;9.60;96.60;;;;;;5074050;27;39809;-58
2022/03/21 08:07:55;;;;;;;27.50;17.42;;;9.90;95.70;;;;;;5074274;27;37508;-58
2022/03/21 08:10:24;;;;;;;24.20;17.17;;;10.20;94.80;;;;;;5072454;27;37636;-58
2022/03/21 08:12:51;;;;;;;30.55;18.80;;;10.40;94.00;;;;;;5072404;27;38160;-58
2022/03/21 08:15:18;;;;;;;24.83;17.55;;;10.70;93.40;;;;;;5074013;28;37207;-58
2022/03/21 08:17:51;;;;;;;23.90;16.70;;;11.10;92.70;;;;;;5073060;27;37921;-57
2022/03/21 08:20:21;;;;;;;24.75;17.80;;;11.60;91.30;;;;;;5074740;27;36643;-58
2022/03/21 08:22:48;;;;;;;24.95;17.40;;;12.00;91.10;;;;;;5074738;27;38971;-58
2022/03/21 08:25:16;;;;;;;27.42;18.48;;;12.30;90.60;;;;;;5074701;28;36955;-58
2022/03/21 08:27:44;;;;;;;25.30;18.38;;;12.60;90.20;;;;;;5072829;28;36727;-58
2022/03/21 08:30:13;;;;;;;23.85;17.23;;;12.70;88.70;;;;;;5073938;28;39285;-58
2022/03/21 08:32:44;;;;;;;23.70;17.25;;;13.00;88.80;;;;;;5073380;28;38317;-58
2022/03/21 08:35:14;;;;;;;22.25;15.88;;;13.30;86.30;;;;;;5071922;27;39362;-58
2022/03/21 08:37:41;;;;;;;25.38;16.58;;;13.50;83.90;;;;;;5074055;27;37378;-58
2022/03/21 08:40:10;;;;;;;24.17;16.55;;;13.80;81.80;;;;;;5074332;28;37636;-58
2022/03/21 08:42:39;;;;;;;23.60;17.55;;;14.00;76.20;;;;;;5074130;28;37437;-58
2022/03/21 08:45:08;;;;;;;23.35;16.90;;;14.20;73.80;;;;;;5072598;28;38148;-57
2022/03/21 08:47:37;;;;;;;24.00;17.00;;;14.50;72.60;;;;;;5074671;28;37489;-58
2022/03/21 08:50:06;;;;;;;24.52;16.50;;;14.80;71.50;;;;;;5073721;27;37528;-58
2022/03/21 08:52:36;;;;;;;23.98;17.10;;;15.00;69.40;;;;;;5073346;27;36274;-58
2022/03/21 08:55:04;;;;;;;23.98;17.20;;;15.10;69.30;;;;;;5072570;27;35966;-57
2022/03/21 08:57:32;;;;;;;24.15;16.45;;;14.90;69.50;;;;;;5074069;28;35754;-58
2022/03/21 08:59:59;;;;;;;27.48;17.88;;;14.80;69.80;;;;;;5073850;27;36811;-58
2022/03/21 09:02:27;;;;;;;24.48;16.58;;;14.70;69.30;;;;;;5072028;28;37649;-58
2022/03/21 09:04:54;;;;;;;23.83;17.30;;;14.90;68.50;;;;;;5072429;28;38123;-58
2022/03/21 09:07:22;;;;;;;21.42;17.05;;;15.20;67.20;;;;;;5074448;28;39412;-58
2022/03/21 09:09:51;;;;;;;25.80;18.02;;;15.50;65.40;;;;;;5074927;27;36750;-56
2022/03/21 09:12:18;;;;;;;21.88;16.13;;;15.60;64.00;;;;;;5073869;27;37603;-56
2022/03/21 09:14:45;;;;;;;24.70;17.70;;;15.90;63.00;;;;;;5074085;28;37206;-56
2022/03/21 09:17:13;;;;;;;23.13;16.60;;;16.30;61.70;;;;;;5073304;28;36751;-56
2022/03/21 09:19:41;;;;;;;27.60;17.65;;;16.70;58.50;;;;;;5072407;27;36730;-56
2022/03/21 09:22:08;;;;;;;25.33;18.40;;;17.00;57.10;;;;;;5073187;28;37753;-56
2022/03/21 09:24:35;;;;;;;22.25;16.55;;;17.30;55.70;;;;;;5073457;27;35980;-56
2022/03/21 09:27:05;;;;;;;24.52;16.70;;;17.60;54.20;;;;;;5072992;27;38058;-56
2022/03/21 09:29:32;;;;;;;25.08;18.05;;;17.80;52.00;;;;;;5072878;27;36428;-56
2022/03/21 09:32:00;;;;;;;25.17;17.10;;;18.00;51.60;;;;;;5070396;27;37522;-56
2022/03/21 09:34:28;;;;;;;24.05;17.30;;;18.00;50.50;;;;;;5072927;28;36109;-56
2022/03/21 09:36:55;;;;;;;23.45;16.38;;;18.10;50.10;;;;;;5070613;27;37875;-56
2022/03/21 09:39:23;;;;;;;20.48;15.90;;;18.20;49.80;;;;;;5072602;27;36504;-56
2022/03/21 09:41:51;;;;;;;24.17;17.50;;;18.00;48.30;;;;;;5071869;28;37592;-55
2022/03/21 09:44:19;;;;;;;22.80;17.25;;;17.80;48.30;;;;;;5072332;28;36990;-56
2022/03/21 09:46:48;;;;;;;20.90;16.70;;;17.60;47.40;;;;;;5073812;28;37789;-56
2022/03/21 09:49:16;;;;;;;20.73;15.07;;;17.50;47.60;;;;;;5074582;28;36811;-57
2022/03/21 09:51:44;;;;;;;24.30;17.67;;;17.60;47.70;;;;;;5072074;28;38229;-56
2022/03/21 09:54:11;;;;;;;20.67;16.42;;;17.80;46.50;;;;;;5073482;28;35843;-56
2022/03/21 09:56:39;;;;;;;22.55;15.73;;;18.20;45.60;;;;;;5073121;28;38209;-56
2022/03/21 09:59:07;;;;;;;21.23;16.20;;;18.80;44.30;;;;;;5071073;28;37718;-56
2022/03/21 10:01:36;;;;;;;21.48;16.48;;;19.10;42.40;;;;;;5072234;28;36244;-56
2022/03/21 10:04:06;;;;;;;21.15;15.38;;;19.30;41.50;;;;;;5073761;28;37179;-56
2022/03/21 10:06:34;;;;;;;23.00;15.10;;;19.70;39.40;;;;;;5072178;28;36927;-56
2022/03/21 10:09:08;;;;;;;20.42;15.25;;;20.00;38.70;;;;;;5073766;28;20052;-56
2022/03/21 10:11:35;;;;;;;19.93;14.40;;;20.10;36.10;;;;;;5073639;27;37427;-56
2022/03/21 10:14:29;;;;;;;19.35;15.57;;;20.10;36.50;;;;;;5071986;27;36308;-56
2022/03/21 10:17:00;;;;;;;21.67;14.45;;;19.90;33.10;;;;;;5073302;28;37765;-56
2022/03/21 10:19:41;;;;;;;23.48;16.50;;;19.70;36.10;;;;;;5073686;27;37668;-56
2022/03/21 10:22:10;;;;;;;20.85;15.70;;;19.40;37.40;;;;;;5073043;28;38529;-56
2022/03/21 10:24:38;;;;;;;22.10;15.38;;;19.10;37.60;;;;;;5072658;28;39239;-56
2022/03/21 10:27:07;;;;;;;20.17;15.40;;;18.90;38.30;;;;;;5072366;27;37919;-56
2022/03/21 10:29:51;;;;;;;14.48;11.73;;;18.80;38.00;;;;;;5072455;27;37768;-56
2022/03/21 10:32:32;;;;;;;;;;;19.00;34.70;;;;;;5070898;28;40026;-56
2022/03/21 10:35:04;;;;;;;18.40;14.35;;;19.20;30.00;;;;;;5072382;28;37755;-56
2022/03/21 10:37:43;;;;;;;23.13;15.18;;;19.80;33.90;;;;;;5071554;28;37373;-56
2022/03/21 10:40:22;;;;;;;22.10;15.45;;;20.30;31.90;;;;;;5072454;27;36677;-56
2022/03/21 10:42:52;;;;;;;23.17;16.77;;;20.60;32.10;;;;;;5068604;28;36234;-56
2022/03/21 10:45:20;;;;;;;20.90;14.60;;;21.00;32.50;;;;;;5069934;27;37229;-56
2022/03/21 10:47:53;;;;;;;21.95;15.05;;;21.30;31.60;;;;;;5071565;27;36132;-56
2022/03/21 10:50:31;;;;;;;21.63;15.30;;;21.60;30.00;;;;;;5072001;27;38154;-56
2022/03/21 10:53:06;;;;;;;20.00;14.98;;;21.50;30.00;;;;;;5072247;28;36025;-56
2022/03/21 10:55:34;;;;;;;16.83;13.20;;;21.30;30.00;;;;;;5072253;28;35835;-56
2022/03/21 10:58:02;;;;;;;20.85;14.43;;;21.10;31.60;;;;;;5071018;28;39604;-56
2022/03/21 11:00:30;;;;;;;19.95;14.23;;;20.90;31.70;;;;;;5072559;27;36751;-55
2022/03/21 11:03:00;;;;;;;19.42;14.65;;;20.50;33.10;;;;;;5072359;27;37809;-56
2022/03/21 11:05:30;;;;;;;19.40;14.52;;;20.20;33.90;;;;;;5072482;28;35891;-56
2022/03/21 11:07:57;;;;;;;20.60;15.73;;;20.00;34.60;;;;;;5071859;28;38196;-56
2022/03/21 11:10:26;;;;;;;20.02;15.38;;;19.90;35.00;;;;;;5076965;27;35505;-56
2022/03/21 11:12:55;;;;;;;21.25;15.77;;;19.70;35.00;;;;;;5075849;27;38234;-57
2022/03/21 11:15:24;;;;;;;20.63;14.05;;;19.70;34.60;;;;;;5076711;27;39004;-56
2022/03/21 11:17:53;;;;;;;20.65;15.48;;;19.70;34.80;;;;;;5075518;27;37044;-56
2022/03/21 11:20:22;;;;;;;22.73;15.60;;;19.70;36.40;;;;;;5075392;27;36847;-56
2022/03/21 11:22:49;;;;;;;22.55;15.13;;;19.50;35.90;;;;;;5073667;27;36932;-56
2022/03/21 11:25:18;;;;;;;21.58;14.45;;;19.20;35.30;;;;;;5072415;27;40285;-57
2022/03/21 11:28:09;;;;;;;23.08;15.02;;;19.20;35.30;;;;;;5073964;27;39028;-56
2022/03/21 11:30:50;;;;;;;21.95;15.60;;;19.30;34.80;;;;;;5074746;28;37194;-56
2022/03/21 11:33:32;;;;;;;22.17;14.82;;;19.40;33.70;;;;;;5073214;28;38457;-57
2022/03/21 11:36:04;;;;;;;20.95;14.82;;;19.50;34.00;;;;;;5072239;27;38524;-57
2022/03/21 11:38:35;;;;;;;20.58;15.68;;;19.50;34.60;;;;;;5075285;27;37218;-57
2022/03/21 11:41:10;;;;;;;18.73;14.55;;;19.60;34.90;;;;;;5076135;27;37127;-57
2022/03/21 11:43:39;;;;;;;24.65;15.68;;;19.60;35.50;;;;;;5074750;27;40649;-57
2022/03/21 11:46:30;;;;;;;20.55;14.57;;;19.50;34.90;;;;;;5075091;27;38241;-57
2022/03/21 11:49:02;;;;;;;20.05;14.73;;;19.40;33.80;;;;;;5075781;28;35921;-57
2022/03/21 11:51:40;;;;;;;22.58;15.57;;;19.20;35.10;;;;;;5075662;28;37154;-57
2022/03/21 11:54:26;;;;;;;20.77;14.27;;;19.10;35.00;;;;;;5075329;27;38219;-57
2022/03/21 11:57:03;;;;;;;19.77;13.70;;;19.00;33.40;;;;;;5074473;27;37481;-57
2022/03/21 11:59:56;;;;;;;18.85;13.35;;;18.90;35.10;;;;;;5073906;28;36974;-57
2022/03/21 12:02:57;;;;;;;19.40;13.70;;;18.90;35.10;;;;;;5072877;28;36886;-57
2022/03/21 12:05:53;;;;;;;18.45;13.23;;;18.80;33.90;;;;;;5069158;28;36351;-57
2022/03/21 12:08:50;;;;;;;20.75;14.70;;;18.80;35.50;;;;;;5071592;28;40104;-57
2022/03/21 12:12:03;;;;;;;21.17;14.25;;;18.70;36.60;;;;;;5074398;27;37063;-57
2022/03/21 12:14:43;;;;;;;22.65;14.45;;;18.70;36.80;;;;;;5075665;28;36681;-57
2022/03/21 12:17:28;;;;;;;20.58;13.85;;;18.70;37.50;;;;;;5073817;27;36168;-57
2022/03/21 12:20:03;;;;;;;19.75;13.90;;;18.60;36.60;;;;;;5074304;27;38772;-57
2022/03/21 12:22:37;;;;;;;19.95;13.70;;;18.50;37.00;;;;;;5073257;27;37345;-57
2022/03/21 12:25:10;;;;;;;18.88;13.75;;;18.40;36.80;;;;;;5074717;27;37533;-57
2022/03/21 12:27:39;;;;;;;19.90;13.13;;;18.40;36.80;;;;;;5074887;27;39611;-57
2022/03/21 12:30:35;;;;;;;18.02;12.85;;;18.40;37.00;;;;;;5074385;28;35908;-55
2022/03/21 12:33:24;;;;;;;16.63;12.18;;;18.30;35.80;;;;;;5074739;28;37586;-57
2022/03/21 12:35:56;;;;;;;20.63;13.45;;;18.30;37.50;;;;;;5073895;27;37016;-51
2022/03/21 12:38:26;;;;;;;20.92;13.52;;;18.20;37.30;;;;;;5073568;27;37837;-50
2022/03/21 12:40:58;;;;;;;18.77;12.45;;;18.10;37.00;;;;;;5074969;27;37470;-51
2022/03/21 12:43:27;;;;;;;15.85;11.88;;;18.00;36.20;;;;;;5074689;28;36854;-51
2022/03/21 12:45:58;;;;;;;19.63;13.55;;;17.90;35.90;;;;;;5073153;28;37253;-50
2022/03/21 12:48:30;;;;;;;20.60;13.23;;;17.80;36.20;;;;;;5075653;28;38174;-47
2022/03/21 12:50:58;;;;;;;18.05;13.00;;;17.70;36.00;;;;;;5073951;28;36885;-50
2022/03/21 12:53:36;;;;;;;19.85;12.93;;;17.60;36.00;;;;;;5074973;27;39336;-50
2022/03/21 12:56:08;;;;;;;22.40;12.60;;;17.60;36.10;;;;;;5073805;27;36297;-50
2022/03/21 12:58:36;;;;;;;19.23;12.13;;;17.40;36.60;;;;;;5075365;28;38702;-50
2022/03/21 13:01:04;;;;;;;17.17;11.82;;;17.40;36.70;;;;;;5073231;27;37472;-50
2022/03/21 13:03:31;;;;;;;18.02;12.25;;;17.40;36.70;;;;;;5075513;27;37474;-51